Palmer, Massachusetts
Current Conditions -  °F | °C
As of 7:58 AM on Friday 31 Oct 2014 (Local Time) from KCEF Reporting Station
Overcast Overcast  
Wind Chill: 33°   Ceiling: 4100
Heat Index: 33°   Visibility: 10mi
Dew Point: 31°   Wind: 0mph
Humidity: 96%   Direction: NA
Pressure: 30.03"   Gusts: NA
Location:  42.16°N, 72.32°W
Report Text: KCEF 311158Z AUTO 00000KT 10SM OVC041 00/00 A3003 RMK AO2 SLP177 T00031003 10003 21025 52007
Loading
Personal Weather Stations






























Interactive Weather Map
Tropical Storm Tracking
New forecast layout! Learn more

10-Day Weather Forecast

Advertisements
Track Severe Weather on mobile